Tropical Cyclones
[Index]
Main Index Home Page Stock Weather Photos Extreme Storms Discussion Storm News and Storm Chasing Reports Tropical Cyclones / Hurricanes / Typhoons Weather Data and Links Wild Fires / Bushfires Weather Observation Techniques Weather Picture Catalogue Tornado Pictures and Reports Stock Video Footage and DVDs for sale
Season 1998-1999 Tropical Cyclone CATHY Track Map
Season 1998-1999 Summaries: [BoM-AU] [JTWC-AU] [JTWC-SIO] [JTWC-SPAC] [JTWC-SH]
<<- Previous TC | BoM 1998-1999 Season | Next TC ->>

click for intensity scale information  Lat/long Grid: Show Hide

 Date Labels: Show Hide

Bureau of Meteorology Tropical Cyclone Data

Name: CATHY
Number: 820 / 199899_05

22 Dec 1998 19:00 UTC to 28 Dec 1998 04:00 UTC

    date/time    lat    long    hPa   cat  kts
1998-12-22 19   11.1   100.6   1002         23          
1998-12-22 22   11.3   100.6   1002         23          
1998-12-23 01   11.5   100.7   1002         23          
1998-12-23 04   11.8   100.7   1002         23          
1998-12-23 07   12.2   100.8   1002         23          
1998-12-23 10   12.6   100.8   1000         27          
1998-12-23 13   13.0   100.9   1000         27          
1998-12-23 16   13.3   101.0   1000         27          
1998-12-23 19   13.7   101.1   1000         27          
1998-12-23 22   14.2   101.1   1000         27          
1998-12-24 01   14.8   100.9    998         29          
1998-12-24 04   15.3   100.7    995    1    35          
1998-12-24 07   15.6   100.4    995    1    35          
1998-12-24 10   15.7   100.2    990    1    41          
1998-12-24 13   15.8   100.0    990    1    41          
1998-12-24 16   15.9    99.8    990    1    41          
1998-12-24 19   15.9    99.5    985    2    49          
1998-12-24 22   15.9    99.2    985    2    49          
1998-12-25 01   15.9    98.9    985    2    49          
1998-12-25 04   16.1    98.5    980    2    54          
1998-12-25 07   16.3    98.3    980    2    54          
1998-12-25 10   16.5    98.1    980    2    54          
1998-12-25 13   16.7    97.8    980    2    54          
1998-12-25 16   16.8    97.4    980    2    54          
1998-12-25 19   16.8    97.0    975    2    60          
1998-12-25 22   16.8    96.6    975    2    60          
1998-12-26 01   16.7    96.2    975    2    60          
1998-12-26 04   16.7    95.8    975    2    60          
1998-12-26 07   16.7    95.5    975    2    60          
1998-12-26 10   16.6    95.2    980    2    54          
1998-12-26 13   16.6    94.9    980    2    54          
1998-12-26 16   16.5    94.7    980    2    54          
1998-12-26 19   16.4    94.5    985    2    49          
1998-12-26 22   16.3    94.2    990    1    41          
1998-12-27 01   16.3    93.9    992    1    39          
1998-12-27 04   16.2    93.6    994    1    35          
1998-12-27 07   16.2    93.3    996         33          
1998-12-27 10   16.1    93.0    998         29          
1998-12-27 13   16.1    92.7   1000         27          
1998-12-27 16   16.0    92.3   1000         27          
1998-12-27 19   16.0    91.7   1002         23          
1998-12-27 22   15.9    91.2   1002         23          
1998-12-28 01   15.9    90.6   1004         21          
1998-12-28 04   15.9    90.1   1004         21          
Winds are 10-min average.

Tropical cyclone tracks developed by Michael Bath using data from the Bureau of Meteorology and Google Maps.


[Australian Severe Weather index] [Copyright Notice] [Email Contacts] [Search This Site] [Privacy Policy]
Document: tropical_cyclone_cathy.htm Updated: 30 May 2013